sensor_id;sensor_type;location;lat;lon;timestamp;temperature;humidity
69543;SHT31;56762;49.494;11.768;2023-02-23T00:00:25;6.11;91.33
69543;SHT31;56762;49.494;11.768;2023-02-23T00:02:55;6.04;91.38
69543;SHT31;56762;49.494;11.768;2023-02-23T00:05:24;6.01;91.38
69543;SHT31;56762;49.494;11.768;2023-02-23T00:07:53;5.98;91.52
69543;SHT31;56762;49.494;11.768;2023-02-23T00:10:22;5.94;91.45
69543;SHT31;56762;49.494;11.768;2023-02-23T00:12:56;5.91;91.43
69543;SHT31;56762;49.494;11.768;2023-02-23T00:15:25;5.88;91.50
69543;SHT31;56762;49.494;11.768;2023-02-23T00:17:53;5.90;91.63
69543;SHT31;56762;49.494;11.768;2023-02-23T00:20:22;5.94;91.75
69543;SHT31;56762;49.494;11.768;2023-02-23T00:22:55;5.92;91.65
69543;SHT31;56762;49.494;11.768;2023-02-23T00:25:24;5.91;91.61
69543;SHT31;56762;49.494;11.768;2023-02-23T00:27:51;5.88;91.53
69543;SHT31;56762;49.494;11.768;2023-02-23T00:30:20;5.90;91.48
69543;SHT31;56762;49.494;11.768;2023-02-23T00:32:49;5.85;91.45
69543;SHT31;56762;49.494;11.768;2023-02-23T00:35:18;5.88;91.61
69543;SHT31;56762;49.494;11.768;2023-02-23T00:37:47;5.87;91.60
69543;SHT31;56762;49.494;11.768;2023-02-23T00:40:17;5.84;91.72
69543;SHT31;56762;49.494;11.768;2023-02-23T00:42:48;5.81;91.74
69543;SHT31;56762;49.494;11.768;2023-02-23T00:45:17;5.79;91.93
69543;SHT31;56762;49.494;11.768;2023-02-23T00:47:45;5.74;92.01
69543;SHT31;56762;49.494;11.768;2023-02-23T00:50:15;5.71;92.03
69543;SHT31;56762;49.494;11.768;2023-02-23T00:52:43;5.67;91.69
69543;SHT31;56762;49.494;11.768;2023-02-23T00:55:12;5.63;91.70
69543;SHT31;56762;49.494;11.768;2023-02-23T00:57:42;5.57;91.67
69543;SHT31;56762;49.494;11.768;2023-02-23T01:00:10;5.54;91.93
69543;SHT31;56762;49.494;11.768;2023-02-23T01:02:44;5.51;91.87
69543;SHT31;56762;49.494;11.768;2023-02-23T01:05:12;5.46;91.70
69543;SHT31;56762;49.494;11.768;2023-02-23T01:07:40;5.44;92.17
69543;SHT31;56762;49.494;11.768;2023-02-23T01:10:08;5.42;92.02
69543;SHT31;56762;49.494;11.768;2023-02-23T01:12:48;5.37;92.21
69543;SHT31;56762;49.494;11.768;2023-02-23T01:15:17;5.36;92.53
69543;SHT31;56762;49.494;11.768;2023-02-23T01:17:46;5.36;92.50
69543;SHT31;56762;49.494;11.768;2023-02-23T01:20:15;5.37;92.25
69543;SHT31;56762;49.494;11.768;2023-02-23T01:22:47;5.33;92.18
69543;SHT31;56762;49.494;11.768;2023-02-23T01:25:16;5.34;92.26
69543;SHT31;56762;49.494;11.768;2023-02-23T01:27:44;5.37;92.34
69543;SHT31;56762;49.494;11.768;2023-02-23T01:30:14;5.36;92.17
69543;SHT31;56762;49.494;11.768;2023-02-23T01:32:41;5.34;92.33
69543;SHT31;56762;49.494;11.768;2023-02-23T01:35:10;5.37;92.03
69543;SHT31;56762;49.494;11.768;2023-02-23T01:37:41;5.36;92.38
69543;SHT31;56762;49.494;11.768;2023-02-23T01:40:12;5.37;92.31
69543;SHT31;56762;49.494;11.768;2023-02-23T01:42:43;5.36;92.49
69543;SHT31;56762;49.494;11.768;2023-02-23T01:45:24;5.37;92.53
69543;SHT31;56762;49.494;11.768;2023-02-23T01:47:55;5.37;92.53
69543;SHT31;56762;49.494;11.768;2023-02-23T01:50:26;5.39;92.63
69543;SHT31;56762;49.494;11.768;2023-02-23T01:52:54;5.39;92.67
69543;SHT31;56762;49.494;11.768;2023-02-23T01:55:22;5.37;92.67
69543;SHT31;56762;49.494;11.768;2023-02-23T01:57:54;5.37;92.57
69543;SHT31;56762;49.494;11.768;2023-02-23T02:00:25;5.39;92.55
69543;SHT31;56762;49.494;11.768;2023-02-23T02:02:54;5.44;92.39
69543;SHT31;56762;49.494;11.768;2023-02-23T02:05:24;5.48;92.28
69543;SHT31;56762;49.494;11.768;2023-02-23T02:07:52;5.48;92.38
69543;SHT31;56762;49.494;11.768;2023-02-23T02:10:25;5.50;92.33
69543;SHT31;56762;49.494;11.768;2023-02-23T02:13:17;5.51;92.42
69543;SHT31;56762;49.494;11.768;2023-02-23T02:16:11;5.53;92.31
69543;SHT31;56762;49.494;11.768;2023-02-23T02:18:55;5.60;92.16
69543;SHT31;56762;49.494;11.768;2023-02-23T02:25:05;5.74;90.97
69543;SHT31;56762;49.494;11.768;2023-02-23T02:34:03;5.81;90.85
69543;SHT31;56762;49.494;11.768;2023-02-23T02:36:56;5.82;91.02
69543;SHT31;56762;49.494;11.768;2023-02-23T02:39:32;5.79;90.98
69543;SHT31;56762;49.494;11.768;2023-02-23T02:42:10;5.82;91.31
69543;SHT31;56762;49.494;11.768;2023-02-23T02:44:49;5.88;91.15
69543;SHT31;56762;49.494;11.768;2023-02-23T02:47:23;5.90;91.04
69543;SHT31;56762;49.494;11.768;2023-02-23T02:49:58;5.92;90.90
69543;SHT31;56762;49.494;11.768;2023-02-23T02:52:34;5.94;90.78
69543;SHT31;56762;49.494;11.768;2023-02-23T02:55:08;5.91;90.92
69543;SHT31;56762;49.494;11.768;2023-02-23T02:57:38;5.87;91.06
69543;SHT31;56762;49.494;11.768;2023-02-23T03:00:07;5.84;90.80
69543;SHT31;56762;49.494;11.768;2023-02-23T03:02:52;5.79;90.96
69543;SHT31;56762;49.494;11.768;2023-02-23T03:05:41;5.73;90.98
69543;SHT31;56762;49.494;11.768;2023-02-23T03:08:36;5.67;90.68
69543;SHT31;56762;49.494;11.768;2023-02-23T03:11:25;5.63;91.03
69543;SHT31;56762;49.494;11.768;2023-02-23T03:14:23;5.57;91.30
69543;SHT31;56762;49.494;11.768;2023-02-23T03:17:17;5.57;91.26
69543;SHT31;56762;49.494;11.768;2023-02-23T03:20:16;5.51;91.26
69543;SHT31;56762;49.494;11.768;2023-02-23T03:23:08;5.48;91.00
69543;SHT31;56762;49.494;11.768;2023-02-23T03:26:03;5.44;91.20
69543;SHT31;56762;49.494;11.768;2023-02-23T03:28:56;5.43;91.26
69543;SHT31;56762;49.494;11.768;2023-02-23T03:31:47;5.34;91.14
69543;SHT31;56762;49.494;11.768;2023-02-23T03:34:37;5.32;91.21
69543;SHT31;56762;49.494;11.768;2023-02-23T03:37:26;5.27;91.51
69543;SHT31;56762;49.494;11.768;2023-02-23T03:40:18;5.26;91.33
69543;SHT31;56762;49.494;11.768;2023-02-23T03:43:14;5.20;91.22
69543;SHT31;56762;49.494;11.768;2023-02-23T03:46:02;5.18;91.36
69543;SHT31;56762;49.494;11.768;2023-02-23T03:48:49;5.16;91.63
69543;SHT31;56762;49.494;11.768;2023-02-23T03:51:38;5.13;91.58
69543;SHT31;56762;49.494;11.768;2023-02-23T03:54:30;5.11;91.34
69543;SHT31;56762;49.494;11.768;2023-02-23T03:57:19;5.08;91.25
69543;SHT31;56762;49.494;11.768;2023-02-23T04:00:10;5.02;91.44
69543;SHT31;56762;49.494;11.768;2023-02-23T04:02:58;4.99;91.77
69543;SHT31;56762;49.494;11.768;2023-02-23T04:05:46;5.03;91.77
69543;SHT31;56762;49.494;11.768;2023-02-23T04:08:36;5.02;91.69
69543;SHT31;56762;49.494;11.768;2023-02-23T04:11:27;5.00;91.21
69543;SHT31;56762;49.494;11.768;2023-02-23T04:14:17;4.92;91.22
69543;SHT31;56762;49.494;11.768;2023-02-23T04:16:46;4.93;91.46
69543;SHT31;56762;49.494;11.768;2023-02-23T04:19:13;4.95;91.48
69543;SHT31;56762;49.494;11.768;2023-02-23T04:21:41;4.93;91.95
69543;SHT31;56762;49.494;11.768;2023-02-23T04:24:09;4.97;92.04
69543;SHT31;56762;49.494;11.768;2023-02-23T04:26:37;4.96;91.82
69543;SHT31;56762;49.494;11.768;2023-02-23T04:29:04;4.97;91.64
69543;SHT31;56762;49.494;11.768;2023-02-23T04:31:32;4.96;91.69
69543;SHT31;56762;49.494;11.768;2023-02-23T04:34:01;4.95;91.81
69543;SHT31;56762;49.494;11.768;2023-02-23T04:36:30;4.95;91.88
69543;SHT31;56762;49.494;11.768;2023-02-23T04:38:57;4.95;91.66
69543;SHT31;56762;49.494;11.768;2023-02-23T04:41:25;4.96;91.72
69543;SHT31;56762;49.494;11.768;2023-02-23T04:43:53;4.92;91.64
69543;SHT31;56762;49.494;11.768;2023-02-23T04:46:20;4.95;91.99
69543;SHT31;56762;49.494;11.768;2023-02-23T04:48:48;4.93;92.08
69543;SHT31;56762;49.494;11.768;2023-02-23T04:51:17;4.96;91.88
69543;SHT31;56762;49.494;11.768;2023-02-23T04:53:45;4.92;91.79
69543;SHT31;56762;49.494;11.768;2023-02-23T04:56:12;4.93;91.79
69543;SHT31;56762;49.494;11.768;2023-02-23T04:58:41;4.95;91.99
69543;SHT31;56762;49.494;11.768;2023-02-23T05:01:08;4.95;92.05
69543;SHT31;56762;49.494;11.768;2023-02-23T05:03:36;4.96;92.04
69543;SHT31;56762;49.494;11.768;2023-02-23T05:06:04;4.93;92.02
69543;SHT31;56762;49.494;11.768;2023-02-23T05:08:33;4.93;92.26
69543;SHT31;56762;49.494;11.768;2023-02-23T05:11:01;4.91;92.17
69543;SHT31;56762;49.494;11.768;2023-02-23T05:13:29;4.92;91.96
69543;SHT31;56762;49.494;11.768;2023-02-23T05:15:56;4.89;91.72
69543;SHT31;56762;49.494;11.768;2023-02-23T05:18:24;4.85;91.84
69543;SHT31;56762;49.494;11.768;2023-02-23T05:20:52;4.86;91.53
69543;SHT31;56762;49.494;11.768;2023-02-23T05:23:20;4.83;91.81
69543;SHT31;56762;49.494;11.768;2023-02-23T05:25:49;4.82;91.52
69543;SHT31;56762;49.494;11.768;2023-02-23T05:28:17;4.81;91.58
69543;SHT31;56762;49.494;11.768;2023-02-23T05:30:45;4.78;91.31
69543;SHT31;56762;49.494;11.768;2023-02-23T05:33:12;4.75;91.43
69543;SHT31;56762;49.494;11.768;2023-02-23T05:35:43;4.75;91.46
69543;SHT31;56762;49.494;11.768;2023-02-23T05:38:11;4.72;91.61
69543;SHT31;56762;49.494;11.768;2023-02-23T05:40:39;4.69;91.82
69543;SHT31;56762;49.494;11.768;2023-02-23T05:43:08;4.69;91.90
69543;SHT31;56762;49.494;11.768;2023-02-23T05:45:39;4.71;91.99
69543;SHT31;56762;49.494;11.768;2023-02-23T05:48:07;4.71;92.03
69543;SHT31;56762;49.494;11.768;2023-02-23T05:50:35;4.75;92.16
69543;SHT31;56762;49.494;11.768;2023-02-23T05:53:03;4.79;92.14
69543;SHT31;56762;49.494;11.768;2023-02-23T05:55:31;4.79;92.05
69543;SHT31;56762;49.494;11.768;2023-02-23T05:57:59;4.85;92.00
69543;SHT31;56762;49.494;11.768;2023-02-23T06:00:28;4.86;91.91
69543;SHT31;56762;49.494;11.768;2023-02-23T06:02:55;4.86;91.67
69543;SHT31;56762;49.494;11.768;2023-02-23T06:05:23;4.88;91.68
69543;SHT31;56762;49.494;11.768;2023-02-23T06:07:51;4.85;91.58
69543;SHT31;56762;49.494;11.768;2023-02-23T06:10:19;4.88;91.61
69543;SHT31;56762;49.494;11.768;2023-02-23T06:12:47;4.91;91.57
69543;SHT31;56762;49.494;11.768;2023-02-23T06:15:14;4.93;91.53
69543;SHT31;56762;49.494;11.768;2023-02-23T06:17:43;4.99;91.39
69543;SHT31;56762;49.494;11.768;2023-02-23T06:20:12;4.97;91.58
69543;SHT31;56762;49.494;11.768;2023-02-23T06:22:40;5.00;91.56
69543;SHT31;56762;49.494;11.768;2023-02-23T06:25:08;5.02;91.46
69543;SHT31;56762;49.494;11.768;2023-02-23T06:27:38;5.05;91.33
69543;SHT31;56762;49.494;11.768;2023-02-23T06:30:08;5.02;91.13
69543;SHT31;56762;49.494;11.768;2023-02-23T06:32:36;5.03;91.00
69543;SHT31;56762;49.494;11.768;2023-02-23T06:35:06;5.05;90.81
69543;SHT31;56762;49.494;11.768;2023-02-23T06:37:35;5.08;90.88
69543;SHT31;56762;49.494;11.768;2023-02-23T06:40:04;5.13;90.90
69543;SHT31;56762;49.494;11.768;2023-02-23T06:42:32;5.13;90.84
69543;SHT31;56762;49.494;11.768;2023-02-23T06:45:01;5.15;90.75
69543;SHT31;56762;49.494;11.768;2023-02-23T06:47:29;5.18;91.01
69543;SHT31;56762;49.494;11.768;2023-02-23T06:49:57;5.20;91.03
69543;SHT31;56762;49.494;11.768;2023-02-23T06:52:26;5.22;91.02
69543;SHT31;56762;49.494;11.768;2023-02-23T06:54:54;5.27;91.11
69543;SHT31;56762;49.494;11.768;2023-02-23T06:57:22;5.29;90.91
69543;SHT31;56762;49.494;11.768;2023-02-23T06:59:50;5.32;90.95
69543;SHT31;56762;49.494;11.768;2023-02-23T07:02:18;5.36;91.07
69543;SHT31;56762;49.494;11.768;2023-02-23T07:04:46;5.40;90.88
69543;SHT31;56762;49.494;11.768;2023-02-23T07:07:14;5.47;90.91
69543;SHT31;56762;49.494;11.768;2023-02-23T07:09:43;5.50;90.44
69543;SHT31;56762;49.494;11.768;2023-02-23T07:12:11;5.54;90.15
69543;SHT31;56762;49.494;11.768;2023-02-23T07:14:38;5.57;89.76
69543;SHT31;56762;49.494;11.768;2023-02-23T07:17:06;5.55;89.85
69543;SHT31;56762;49.494;11.768;2023-02-23T07:19:37;5.60;90.08
69543;SHT31;56762;49.494;11.768;2023-02-23T07:22:04;5.63;89.67
69543;SHT31;56762;49.494;11.768;2023-02-23T07:24:32;5.64;89.48
69543;SHT31;56762;49.494;11.768;2023-02-23T07:27:01;5.70;89.42
69543;SHT31;56762;49.494;11.768;2023-02-23T07:29:29;5.74;89.44
69543;SHT31;56762;49.494;11.768;2023-02-23T07:31:56;5.78;89.32
69543;SHT31;56762;49.494;11.768;2023-02-23T07:34:24;5.87;89.43
69543;SHT31;56762;49.494;11.768;2023-02-23T07:36:52;5.94;89.59
69543;SHT31;56762;49.494;11.768;2023-02-23T07:39:20;6.02;89.57
69543;SHT31;56762;49.494;11.768;2023-02-23T07:41:48;6.06;89.09
69543;SHT31;56762;49.494;11.768;2023-02-23T07:44:18;6.13;89.63
69543;SHT31;56762;49.494;11.768;2023-02-23T07:46:46;6.23;89.59
69543;SHT31;56762;49.494;11.768;2023-02-23T07:49:13;6.32;89.37
69543;SHT31;56762;49.494;11.768;2023-02-23T07:51:41;6.44;89.34
69543;SHT31;56762;49.494;11.768;2023-02-23T07:54:09;6.52;88.92
69543;SHT31;56762;49.494;11.768;2023-02-23T07:56:37;6.60;89.08
69543;SHT31;56762;49.494;11.768;2023-02-23T07:59:05;6.70;89.02
69543;SHT31;56762;49.494;11.768;2023-02-23T08:01:34;6.76;88.65
69543;SHT31;56762;49.494;11.768;2023-02-23T08:04:02;6.80;88.60
69543;SHT31;56762;49.494;11.768;2023-02-23T08:06:29;6.88;88.46
69543;SHT31;56762;49.494;11.768;2023-02-23T08:08:58;6.95;88.34
69543;SHT31;56762;49.494;11.768;2023-02-23T08:11:26;7.00;88.19
69543;SHT31;56762;49.494;11.768;2023-02-23T08:13:55;7.07;88.09
69543;SHT31;56762;49.494;11.768;2023-02-23T08:16:26;7.15;88.18
69543;SHT31;56762;49.494;11.768;2023-02-23T08:18:56;7.24;87.87
69543;SHT31;56762;49.494;11.768;2023-02-23T08:21:25;7.31;87.56
69543;SHT31;56762;49.494;11.768;2023-02-23T08:23:52;7.39;87.39
69543;SHT31;56762;49.494;11.768;2023-02-23T08:26:20;7.54;87.45
69543;SHT31;56762;49.494;11.768;2023-02-23T08:28:50;7.59;87.11
69543;SHT31;56762;49.494;11.768;2023-02-23T08:31:17;7.66;87.05
69543;SHT31;56762;49.494;11.768;2023-02-23T08:33:50;7.73;86.58
69543;SHT31;56762;49.494;11.768;2023-02-23T08:36:19;7.80;86.81
69543;SHT31;56762;49.494;11.768;2023-02-23T08:38:47;7.89;86.13
69543;SHT31;56762;49.494;11.768;2023-02-23T08:41:15;7.94;85.97
69543;SHT31;56762;49.494;11.768;2023-02-23T08:43:44;8.00;86.27
69543;SHT31;56762;49.494;11.768;2023-02-23T08:46:12;8.08;86.09
69543;SHT31;56762;49.494;11.768;2023-02-23T08:48:39;8.17;85.83
69543;SHT31;56762;49.494;11.768;2023-02-23T08:51:07;8.23;85.78
69543;SHT31;56762;49.494;11.768;2023-02-23T08:53:36;8.30;85.51
69543;SHT31;56762;49.494;11.768;2023-02-23T08:56:06;8.37;85.72
69543;SHT31;56762;49.494;11.768;2023-02-23T08:58:34;8.41;85.09
69543;SHT31;56762;49.494;11.768;2023-02-23T09:01:03;8.42;85.30
69543;SHT31;56762;49.494;11.768;2023-02-23T09:03:31;8.52;85.29
69543;SHT31;56762;49.494;11.768;2023-02-23T09:06:07;8.58;84.93
69543;SHT31;56762;49.494;11.768;2023-02-23T09:08:37;8.62;84.42
69543;SHT31;56762;49.494;11.768;2023-02-23T09:11:04;8.75;84.52
69543;SHT31;56762;49.494;11.768;2023-02-23T09:13:32;8.80;84.48
69543;SHT31;56762;49.494;11.768;2023-02-23T09:16:03;8.89;84.57
69543;SHT31;56762;49.494;11.768;2023-02-23T09:18:32;8.95;84.08
69543;SHT31;56762;49.494;11.768;2023-02-23T09:21:02;9.00;83.15
69543;SHT31;56762;49.494;11.768;2023-02-23T09:23:33;9.12;83.77
69543;SHT31;56762;49.494;11.768;2023-02-23T09:26:03;9.19;83.93
69543;SHT31;56762;49.494;11.768;2023-02-23T09:28:31;9.23;83.65
69543;SHT31;56762;49.494;11.768;2023-02-23T09:31:04;9.27;83.55
69543;SHT31;56762;49.494;11.768;2023-02-23T09:33:32;9.33;83.50
69543;SHT31;56762;49.494;11.768;2023-02-23T09:36:03;9.37;83.37
69543;SHT31;56762;49.494;11.768;2023-02-23T09:38:31;9.34;83.54
69543;SHT31;56762;49.494;11.768;2023-02-23T09:40:59;9.37;83.35
69543;SHT31;56762;49.494;11.768;2023-02-23T09:43:31;9.34;83.48
69543;SHT31;56762;49.494;11.768;2023-02-23T09:46:10;9.44;83.57
69543;SHT31;56762;49.494;11.768;2023-02-23T09:48:40;9.50;83.27
69543;SHT31;56762;49.494;11.768;2023-02-23T09:51:15;9.58;83.07
69543;SHT31;56762;49.494;11.768;2023-02-23T09:53:46;9.62;83.01
69543;SHT31;56762;49.494;11.768;2023-02-23T09:56:20;9.70;82.92
69543;SHT31;56762;49.494;11.768;2023-02-23T09:58:52;9.78;82.79
69543;SHT31;56762;49.494;11.768;2023-02-23T10:01:41;9.85;83.09
69543;SHT31;56762;49.494;11.768;2023-02-23T10:04:17;9.99;82.66
69543;SHT31;56762;49.494;11.768;2023-02-23T10:06:49;10.02;82.26
69543;SHT31;56762;49.494;11.768;2023-02-23T10:09:24;10.06;82.67
69543;SHT31;56762;49.494;11.768;2023-02-23T10:12:02;10.22;82.47
69543;SHT31;56762;49.494;11.768;2023-02-23T10:14:50;10.37;82.14
69543;SHT31;56762;49.494;11.768;2023-02-23T10:17:30;10.46;81.83
69543;SHT31;56762;49.494;11.768;2023-02-23T10:20:03;10.53;81.63
69543;SHT31;56762;49.494;11.768;2023-02-23T10:22:33;10.57;81.35
69543;SHT31;56762;49.494;11.768;2023-02-23T10:25:05;10.56;81.42
69543;SHT31;56762;49.494;11.768;2023-02-23T10:27:40;10.55;81.39
69543;SHT31;56762;49.494;11.768;2023-02-23T10:30:21;10.50;81.26
69543;SHT31;56762;49.494;11.768;2023-02-23T10:32:55;10.49;81.41
69543;SHT31;56762;49.494;11.768;2023-02-23T10:35:26;10.46;81.67
69543;SHT31;56762;49.494;11.768;2023-02-23T10:37:56;10.43;81.53
69543;SHT31;56762;49.494;11.768;2023-02-23T10:40:25;10.40;81.80
69543;SHT31;56762;49.494;11.768;2023-02-23T10:42:55;10.36;81.67
69543;SHT31;56762;49.494;11.768;2023-02-23T10:45:26;10.39;81.56
69543;SHT31;56762;49.494;11.768;2023-02-23T10:47:57;10.40;81.60
69543;SHT31;56762;49.494;11.768;2023-02-23T10:50:28;10.49;81.70
69543;SHT31;56762;49.494;11.768;2023-02-23T10:52:58;10.59;81.39
69543;SHT31;56762;49.494;11.768;2023-02-23T10:55:28;10.67;80.80
69543;SHT31;56762;49.494;11.768;2023-02-23T10:58:01;10.84;80.64
69543;SHT31;56762;49.494;11.768;2023-02-23T11:00:31;10.97;80.16
69543;SHT31;56762;49.494;11.768;2023-02-23T11:03:15;11.11;79.66
69543;SHT31;56762;49.494;11.768;2023-02-23T11:05:45;11.22;78.93
69543;SHT31;56762;49.494;11.768;2023-02-23T11:08:24;11.27;78.56
69543;SHT31;56762;49.494;11.768;2023-02-23T11:11:04;11.29;78.74
69543;SHT31;56762;49.494;11.768;2023-02-23T11:13:35;11.34;78.62
69543;SHT31;56762;49.494;11.768;2023-02-23T11:16:08;11.40;78.28
69543;SHT31;56762;49.494;11.768;2023-02-23T11:18:38;11.46;78.44
69543;SHT31;56762;49.494;11.768;2023-02-23T11:21:21;11.55;78.22
69543;SHT31;56762;49.494;11.768;2023-02-23T11:23:50;11.61;78.41
69543;SHT31;56762;49.494;11.768;2023-02-23T11:26:23;11.63;77.97
69543;SHT31;56762;49.494;11.768;2023-02-23T11:28:55;11.56;77.30
69543;SHT31;56762;49.494;11.768;2023-02-23T11:31:30;11.58;77.75
69543;SHT31;56762;49.494;11.768;2023-02-23T11:34:02;11.48;78.10
69543;SHT31;56762;49.494;11.768;2023-02-23T11:36:31;11.43;78.26
69543;SHT31;56762;49.494;11.768;2023-02-23T11:39:14;11.38;78.46
69543;SHT31;56762;49.494;11.768;2023-02-23T11:41:44;11.35;78.95
69543;SHT31;56762;49.494;11.768;2023-02-23T11:44:20;11.32;78.79
69543;SHT31;56762;49.494;11.768;2023-02-23T11:46:50;11.27;78.94
69543;SHT31;56762;49.494;11.768;2023-02-23T11:49:22;11.21;78.99
69543;SHT31;56762;49.494;11.768;2023-02-23T11:51:50;11.15;79.05
69543;SHT31;56762;49.494;11.768;2023-02-23T11:54:24;11.11;79.51
69543;SHT31;56762;49.494;11.768;2023-02-23T11:56:53;11.04;80.03
69543;SHT31;56762;49.494;11.768;2023-02-23T11:59:27;10.94;79.88
69543;SHT31;56762;49.494;11.768;2023-02-23T12:02:04;10.91;80.37
69543;SHT31;56762;49.494;11.768;2023-02-23T12:08:16;10.81;80.90
69543;SHT31;56762;49.494;11.768;2023-02-23T12:10:48;10.83;81.00
69543;SHT31;56762;49.494;11.768;2023-02-23T12:13:24;10.84;80.95
69543;SHT31;56762;49.494;11.768;2023-02-23T12:15:57;10.87;80.93
69543;SHT31;56762;49.494;11.768;2023-02-23T12:18:41;10.90;80.95
69543;SHT31;56762;49.494;11.768;2023-02-23T12:21:19;10.87;81.18
69543;SHT31;56762;49.494;11.768;2023-02-23T12:23:54;10.96;80.67
69543;SHT31;56762;49.494;11.768;2023-02-23T12:26:25;10.90;80.78
69543;SHT31;56762;49.494;11.768;2023-02-23T12:28:55;10.78;81.22
69543;SHT31;56762;49.494;11.768;2023-02-23T12:31:27;10.73;81.77
69543;SHT31;56762;49.494;11.768;2023-02-23T12:34:01;10.71;82.03
69543;SHT31;56762;49.494;11.768;2023-02-23T12:36:36;10.67;82.32
69543;SHT31;56762;49.494;11.768;2023-02-23T12:39:10;10.63;82.62
69543;SHT31;56762;49.494;11.768;2023-02-23T12:41:47;10.64;82.60
69543;SHT31;56762;49.494;11.768;2023-02-23T12:44:29;10.64;82.83
69543;SHT31;56762;49.494;11.768;2023-02-23T12:47:01;10.61;82.80
69543;SHT31;56762;49.494;11.768;2023-02-23T12:49:36;10.61;82.72
69543;SHT31;56762;49.494;11.768;2023-02-23T12:52:11;10.60;82.72
69543;SHT31;56762;49.494;11.768;2023-02-23T12:54:40;10.60;82.89
69543;SHT31;56762;49.494;11.768;2023-02-23T12:57:16;10.56;82.95
69543;SHT31;56762;49.494;11.768;2023-02-23T13:00:01;10.56;82.90
69543;SHT31;56762;49.494;11.768;2023-02-23T13:02:48;10.55;83.14
69543;SHT31;56762;49.494;11.768;2023-02-23T13:05:22;10.57;82.96
69543;SHT31;56762;49.494;11.768;2023-02-23T13:08:00;10.63;82.80
69543;SHT31;56762;49.494;11.768;2023-02-23T13:10:44;10.61;82.90
69543;SHT31;56762;49.494;11.768;2023-02-23T13:13:24;10.63;83.03
69543;SHT31;56762;49.494;11.768;2023-02-23T13:16:00;10.68;83.00
69543;SHT31;56762;49.494;11.768;2023-02-23T13:18:33;10.71;82.86
69543;SHT31;56762;49.494;11.768;2023-02-23T13:21:10;10.71;82.81
69543;SHT31;56762;49.494;11.768;2023-02-23T13:23:45;10.73;82.85
69543;SHT31;56762;49.494;11.768;2023-02-23T13:26:24;10.70;82.80
69543;SHT31;56762;49.494;11.768;2023-02-23T13:28:59;10.64;82.58
69543;SHT31;56762;49.494;11.768;2023-02-23T13:31:31;10.66;82.74
69543;SHT31;56762;49.494;11.768;2023-02-23T13:34:02;10.66;82.93
69543;SHT31;56762;49.494;11.768;2023-02-23T13:36:33;10.68;82.91
69543;SHT31;56762;49.494;11.768;2023-02-23T13:39:35;10.71;82.73
69543;SHT31;56762;49.494;11.768;2023-02-23T13:42:20;10.77;82.69
69543;SHT31;56762;49.494;11.768;2023-02-23T13:44:59;10.78;82.43
69543;SHT31;56762;49.494;11.768;2023-02-23T13:47:35;10.83;82.00
69543;SHT31;56762;49.494;11.768;2023-02-23T13:50:16;10.83;81.80
69543;SHT31;56762;49.494;11.768;2023-02-23T13:52:51;10.85;81.48
69543;SHT31;56762;49.494;11.768;2023-02-23T13:55:44;10.87;81.60
69543;SHT31;56762;49.494;11.768;2023-02-23T13:58:21;10.94;81.31
69543;SHT31;56762;49.494;11.768;2023-02-23T14:01:03;10.93;81.19
69543;SHT31;56762;49.494;11.768;2023-02-23T14:03:39;10.94;81.02
69543;SHT31;56762;49.494;11.768;2023-02-23T14:06:11;10.93;81.07
69543;SHT31;56762;49.494;11.768;2023-02-23T14:08:42;10.93;80.65
69543;SHT31;56762;49.494;11.768;2023-02-23T14:11:26;10.94;80.45
69543;SHT31;56762;49.494;11.768;2023-02-23T14:13:57;10.91;80.57
69543;SHT31;56762;49.494;11.768;2023-02-23T14:16:25;10.90;80.36
69543;SHT31;56762;49.494;11.768;2023-02-23T14:19:11;10.91;80.58
69543;SHT31;56762;49.494;11.768;2023-02-23T14:21:44;10.93;80.64
69543;SHT31;56762;49.494;11.768;2023-02-23T14:24:19;10.97;80.26
69543;SHT31;56762;49.494;11.768;2023-02-23T14:27:19;10.90;80.38
69543;SHT31;56762;49.494;11.768;2023-02-23T14:30:20;10.90;80.48
69543;SHT31;56762;49.494;11.768;2023-02-23T14:32:51;10.88;80.66
69543;SHT31;56762;49.494;11.768;2023-02-23T14:35:41;10.87;80.67
69543;SHT31;56762;49.494;11.768;2023-02-23T14:38:28;10.88;80.66
69543;SHT31;56762;49.494;11.768;2023-02-23T14:41:19;10.87;80.87
69543;SHT31;56762;49.494;11.768;2023-02-23T14:43:51;10.90;80.68
69543;SHT31;56762;49.494;11.768;2023-02-23T14:46:22;10.93;80.63
69543;SHT31;56762;49.494;11.768;2023-02-23T14:48:57;10.97;80.74
69543;SHT31;56762;49.494;11.768;2023-02-23T14:51:33;10.97;80.60
69543;SHT31;56762;49.494;11.768;2023-02-23T14:54:09;10.98;80.62
69543;SHT31;56762;49.494;11.768;2023-02-23T14:56:50;10.94;80.70
69543;SHT31;56762;49.494;11.768;2023-02-23T14:59:19;10.91;81.11
69543;SHT31;56762;49.494;11.768;2023-02-23T15:01:49;10.87;80.90
69543;SHT31;56762;49.494;11.768;2023-02-23T15:04:19;10.80;81.28
69543;SHT31;56762;49.494;11.768;2023-02-23T15:06:51;10.77;81.20
69543;SHT31;56762;49.494;11.768;2023-02-23T15:09:27;10.70;81.32
69543;SHT31;56762;49.494;11.768;2023-02-23T15:11:58;10.67;81.19
69543;SHT31;56762;49.494;11.768;2023-02-23T15:14:28;10.64;81.32
69543;SHT31;56762;49.494;11.768;2023-02-23T15:16:57;10.60;81.23
69543;SHT31;56762;49.494;11.768;2023-02-23T15:19:33;10.57;81.34
69543;SHT31;56762;49.494;11.768;2023-02-23T15:22:03;10.56;81.01
69543;SHT31;56762;49.494;11.768;2023-02-23T15:24:40;10.56;81.16
69543;SHT31;56762;49.494;11.768;2023-02-23T15:27:20;10.55;81.17
69543;SHT31;56762;49.494;11.768;2023-02-23T15:29:50;10.53;81.60
69543;SHT31;56762;49.494;11.768;2023-02-23T15:32:19;10.49;81.18
69543;SHT31;56762;49.494;11.768;2023-02-23T15:34:47;10.46;81.09
69543;SHT31;56762;49.494;11.768;2023-02-23T15:37:20;10.42;81.48
69543;SHT31;56762;49.494;11.768;2023-02-23T15:39:52;10.37;81.53
69543;SHT31;56762;49.494;11.768;2023-02-23T15:42:31;10.36;81.70
69543;SHT31;56762;49.494;11.768;2023-02-23T15:45:01;10.33;81.74
69543;SHT31;56762;49.494;11.768;2023-02-23T15:47:32;10.33;81.78
69543;SHT31;56762;49.494;11.768;2023-02-23T15:50:07;10.26;81.99
69543;SHT31;56762;49.494;11.768;2023-02-23T15:52:47;10.22;82.25
69543;SHT31;56762;49.494;11.768;2023-02-23T15:55:21;10.19;82.45
69543;SHT31;56762;49.494;11.768;2023-02-23T15:57:56;10.15;82.73
69543;SHT31;56762;49.494;11.768;2023-02-23T16:00:29;10.12;82.93
69543;SHT31;56762;49.494;11.768;2023-02-23T16:03:00;10.12;83.08
69543;SHT31;56762;49.494;11.768;2023-02-23T16:05:30;10.08;83.36
69543;SHT31;56762;49.494;11.768;2023-02-23T16:08:18;10.03;83.89
69543;SHT31;56762;49.494;11.768;2023-02-23T16:10:50;10.03;84.50
69543;SHT31;56762;49.494;11.768;2023-02-23T16:13:21;9.99;84.83
69543;SHT31;56762;49.494;11.768;2023-02-23T16:15:49;9.94;85.35